createdAt,value
2023-01-15T00:00:16.595Z,22.22
2023-01-15T00:02:46.802Z,22.25
2023-01-15T00:05:17.756Z,22.28
2023-01-15T00:07:47.975Z,22.28
2023-01-15T00:10:18.573Z,22.29
2023-01-15T00:12:48.386Z,22.28
2023-01-15T00:15:18.286Z,22.26
2023-01-15T00:17:48.119Z,22.25
2023-01-15T00:20:18.182Z,22.24
2023-01-15T00:22:49.040Z,22.28
2023-01-15T00:25:37.164Z,22.28
2023-01-15T00:28:07.197Z,22.24
2023-01-15T00:30:41.113Z,22.26
2023-01-15T00:33:12.127Z,22.26
2023-01-15T00:35:42.463Z,22.25
2023-01-15T00:38:12.348Z,22.22
2023-01-15T00:40:42.399Z,22.21
2023-01-15T00:43:12.192Z,22.21
2023-01-15T00:45:42.447Z,22.18
2023-01-15T00:48:12.246Z,22.12
2023-01-15T00:50:45.038Z,22.05
2023-01-15T00:53:15.005Z,22.02
2023-01-15T00:55:45.584Z,22.14
2023-01-15T00:58:15.893Z,22.12
2023-01-15T01:00:46.407Z,22.11
2023-01-15T01:03:16.729Z,22.08
2023-01-15T01:05:46.545Z,22.06
2023-01-15T01:08:17.193Z,22.08
2023-01-15T01:10:47.595Z,22.12
2023-01-15T01:13:17.649Z,22.09
2023-01-15T01:15:47.480Z,22.08
2023-01-15T01:18:17.283Z,22.09
2023-01-15T01:20:47.219Z,22.09
2023-01-15T01:23:17.346Z,22.05
2023-01-15T01:25:48.154Z,22.09
2023-01-15T01:28:18.650Z,22.09
2023-01-15T01:30:48.476Z,22.08
2023-01-15T01:33:18.427Z,22.08
2023-01-15T01:35:52.061Z,22.14
2023-01-15T01:38:22.747Z,22.05
2023-01-15T01:40:54.489Z,22.08
2023-01-15T01:43:28.132Z,22.06
2023-01-15T01:45:58.871Z,22.08
2023-01-15T01:48:34.958Z,22.11
2023-01-15T01:51:07.206Z,22.01
2023-01-15T01:53:37.315Z,21.94
2023-01-15T01:56:10.450Z,22.00
2023-01-15T01:58:41.675Z,21.95
2023-01-15T02:01:12.516Z,21.90
2023-01-15T02:03:42.705Z,21.90
2023-01-15T02:06:14.603Z,21.90
2023-01-15T02:08:45.008Z,21.84
2023-01-15T02:11:22.083Z,21.87
2023-01-15T02:14:19.457Z,21.93
2023-01-15T02:17:11.062Z,21.85
2023-01-15T02:19:58.771Z,21.80
2023-01-15T02:22:32.654Z,21.80
2023-01-15T02:25:35.609Z,21.81
2023-01-15T02:28:36.069Z,21.74
2023-01-15T02:31:12.209Z,21.77
2023-01-15T02:34:00.707Z,21.74
2023-01-15T02:36:34.841Z,21.70
2023-01-15T02:39:10.117Z,21.70
2023-01-15T02:41:49.345Z,21.61
2023-01-15T02:44:23.777Z,21.61
2023-01-15T02:46:58.022Z,21.58
2023-01-15T02:49:29.793Z,21.64
2023-01-15T02:52:11.557Z,21.73
2023-01-15T02:55:11.277Z,21.75
2023-01-15T02:57:49.427Z,21.81
2023-01-15T03:00:23.332Z,21.80
2023-01-15T03:03:05.243Z,21.71
2023-01-15T03:05:43.278Z,21.70
2023-01-15T03:08:13.752Z,21.74
2023-01-15T03:11:09.283Z,21.73
2023-01-15T03:14:09.384Z,21.67
2023-01-15T03:17:03.324Z,21.64
2023-01-15T03:19:45.029Z,21.58
2023-01-15T03:22:37.393Z,21.54
2023-01-15T03:25:15.133Z,21.49
2023-01-15T03:27:50.495Z,21.47
2023-01-15T03:30:24.695Z,21.54
2023-01-15T03:32:56.060Z,21.51
2023-01-15T03:35:49.887Z,21.54
2023-01-15T03:38:48.389Z,21.54
2023-01-15T03:41:37.475Z,21.56
2023-01-15T03:44:15.212Z,21.53
2023-01-15T03:47:03.941Z,21.53
2023-01-15T03:49:45.503Z,21.57
2023-01-15T03:52:33.009Z,21.56
2023-01-15T03:55:16.818Z,21.49
2023-01-15T03:58:12.976Z,21.49
2023-01-15T04:00:51.422Z,21.50
2023-01-15T04:03:25.510Z,21.50
2023-01-15T04:05:58.768Z,21.50
2023-01-15T04:08:39.691Z,21.51
2023-01-15T04:11:10.269Z,21.50
2023-01-15T04:13:46.328Z,21.47
2023-01-15T04:16:34.230Z,21.47
2023-01-15T04:19:04.822Z,21.43
2023-01-15T04:21:37.889Z,21.46
2023-01-15T04:24:08.258Z,21.44
2023-01-15T04:26:38.997Z,21.42
2023-01-15T04:29:09.464Z,21.37
2023-01-15T04:31:39.281Z,21.32
2023-01-15T04:34:09.565Z,21.32
2023-01-15T04:36:39.380Z,21.36
2023-01-15T04:39:09.171Z,21.32
2023-01-15T04:41:57.292Z,21.30
2023-01-15T04:44:29.786Z,21.25
2023-01-15T04:47:01.064Z,21.19
2023-01-15T04:49:31.400Z,21.13
2023-01-15T04:52:01.556Z,21.06
2023-01-15T04:54:31.907Z,21.12
2023-01-15T04:57:02.081Z,21.18
2023-01-15T04:59:31.858Z,21.25
2023-01-15T05:02:06.046Z,21.26
2023-01-15T05:04:37.479Z,21.25
2023-01-15T05:07:08.943Z,21.25
2023-01-15T05:09:39.608Z,21.23
2023-01-15T05:12:10.529Z,21.18
2023-01-15T05:14:40.635Z,21.22
2023-01-15T05:17:10.482Z,21.27
2023-01-15T05:19:40.919Z,21.27
2023-01-15T05:22:11.493Z,21.23
2023-01-15T05:24:41.743Z,21.22
2023-01-15T05:27:11.530Z,21.22
2023-01-15T05:29:41.317Z,21.22
2023-01-15T05:32:12.014Z,21.22
2023-01-15T05:34:42.422Z,21.16
2023-01-15T05:37:12.702Z,21.10
2023-01-15T05:39:42.545Z,21.09
2023-01-15T05:42:12.318Z,21.12
2023-01-15T05:44:42.207Z,21.12
2023-01-15T05:47:13.195Z,21.10
2023-01-15T05:49:43.668Z,21.09
2023-01-15T05:52:13.447Z,21.09
2023-01-15T05:54:43.441Z,21.07
2023-01-15T05:57:14.542Z,21.09
2023-01-15T05:59:45.250Z,21.07
2023-01-15T06:02:15.448Z,21.05
2023-01-15T06:04:45.197Z,21.03
2023-01-15T06:07:15.167Z,21.05
2023-01-15T06:09:45.273Z,21.03
2023-01-15T06:12:15.053Z,20.98
2023-01-15T06:14:44.822Z,20.99
2023-01-15T06:17:16.203Z,20.99
2023-01-15T06:19:46.160Z,20.95
2023-01-15T06:22:16.245Z,20.94
2023-01-15T06:24:46.307Z,20.92
2023-01-15T06:27:16.088Z,20.92
2023-01-15T06:29:45.878Z,20.94
2023-01-15T06:32:16.006Z,20.96
2023-01-15T06:34:46.101Z,20.88
2023-01-15T06:37:15.866Z,20.86
2023-01-15T06:39:45.617Z,20.89
2023-01-15T06:42:34.731Z,20.88
2023-01-15T06:45:23.380Z,20.89
2023-01-15T06:47:53.760Z,20.88
2023-01-15T06:50:23.596Z,20.88
2023-01-15T06:52:53.682Z,20.91
2023-01-15T06:55:25.230Z,20.86
2023-01-15T06:57:55.845Z,20.86
2023-01-15T07:00:25.750Z,20.86
2023-01-15T07:02:55.538Z,20.89
2023-01-15T07:05:25.314Z,20.92
2023-01-15T07:07:55.132Z,20.91
2023-01-15T07:10:25.155Z,20.89
2023-01-15T07:12:55.346Z,20.92
2023-01-15T07:15:25.136Z,20.95
2023-01-15T07:17:59.394Z,20.96
2023-01-15T07:20:29.785Z,20.94
2023-01-15T07:22:59.593Z,20.86
2023-01-15T07:25:29.358Z,20.92
2023-01-15T07:27:59.582Z,20.91
2023-01-15T07:30:29.390Z,20.89
2023-01-15T07:32:59.399Z,20.91
2023-01-15T07:35:29.179Z,20.94
2023-01-15T07:37:58.954Z,20.92
2023-01-15T07:40:28.721Z,20.91
2023-01-15T07:43:16.462Z,20.88
2023-01-15T07:46:09.133Z,20.95
2023-01-15T07:48:57.596Z,20.92
2023-01-15T07:51:28.016Z,20.92
2023-01-15T07:53:58.547Z,20.95
2023-01-15T07:56:28.624Z,20.96
2023-01-15T07:58:58.452Z,20.95
2023-01-15T08:01:28.373Z,20.95
2023-01-15T08:03:58.645Z,20.94
2023-01-15T08:06:28.730Z,20.95
2023-01-15T08:08:58.528Z,20.94
2023-01-15T08:11:46.818Z,20.94
2023-01-15T08:14:35.663Z,20.95
2023-01-15T08:17:06.196Z,20.89
2023-01-15T08:19:36.500Z,20.88
2023-01-15T08:22:06.281Z,20.86
2023-01-15T08:24:36.047Z,20.85
2023-01-15T08:27:06.822Z,20.85
2023-01-15T08:29:36.582Z,20.88
2023-01-15T08:32:06.998Z,20.86
2023-01-15T08:34:37.042Z,20.84
2023-01-15T08:37:07.524Z,20.84
2023-01-15T08:39:37.350Z,20.79
2023-01-15T08:42:07.441Z,20.81
2023-01-15T08:44:37.474Z,20.84
2023-01-15T08:47:07.611Z,20.85
2023-01-15T08:49:37.420Z,20.85
2023-01-15T08:52:07.290Z,20.84
2023-01-15T08:54:38.023Z,20.88
2023-01-15T08:57:10.411Z,20.85
2023-01-15T08:59:40.139Z,20.94
2023-01-15T09:02:15.838Z,20.89
2023-01-15T09:04:45.852Z,20.88
2023-01-15T09:07:15.857Z,20.89
2023-01-15T09:09:45.687Z,20.89
2023-01-15T09:12:15.915Z,20.92
2023-01-15T09:15:00.594Z,20.96
2023-01-15T09:17:34.445Z,21.02
2023-01-15T09:20:04.441Z,21.02
2023-01-15T09:22:35.154Z,21.05
2023-01-15T09:25:05.442Z,21.05
2023-01-15T09:27:35.691Z,21.06
2023-01-15T09:30:06.600Z,21.09
2023-01-15T09:32:36.448Z,21.10
2023-01-15T09:35:06.411Z,21.18
2023-01-15T09:37:36.240Z,21.20
2023-01-15T09:40:08.746Z,21.22
2023-01-15T09:42:58.258Z,21.29
2023-01-15T09:45:43.861Z,21.27
2023-01-15T09:48:28.530Z,21.30
2023-01-15T09:51:09.183Z,21.32
2023-01-15T09:53:57.629Z,21.33
2023-01-15T09:56:30.897Z,21.36
2023-01-15T09:59:05.295Z,21.34
2023-01-15T10:01:37.007Z,21.43
2023-01-15T10:04:28.936Z,21.49
2023-01-15T10:07:09.765Z,21.51
2023-01-15T10:09:42.604Z,21.68
2023-01-15T10:12:37.078Z,21.78
2023-01-15T10:15:07.996Z,21.80
2023-01-15T10:18:00.382Z,21.88
2023-01-15T10:20:46.904Z,21.91
2023-01-15T10:23:52.996Z,21.91
2023-01-15T10:26:35.158Z,22.09
2023-01-15T10:29:17.262Z,22.21
2023-01-15T10:31:47.236Z,22.36
2023-01-15T10:34:56.376Z,22.63
2023-01-15T10:37:35.335Z,22.70
2023-01-15T10:40:33.722Z,22.86
2023-01-15T10:43:03.800Z,22.99
2023-01-15T10:45:56.956Z,23.06
2023-01-15T10:48:48.240Z,23.27
2023-01-15T10:51:56.772Z,23.69
2023-01-15T10:54:36.905Z,24.51
2023-01-15T10:57:31.255Z,25.58
2023-01-15T11:00:04.700Z,26.45
2023-01-15T11:02:44.910Z,27.07
2023-01-15T11:05:20.920Z,27.59
2023-01-15T11:08:24.741Z,27.98
2023-01-15T11:10:44.760Z,28.16
2023-01-15T11:13:44.144Z,28.47
2023-01-15T11:16:35.792Z,28.33
2023-01-15T11:19:26.568Z,28.70
2023-01-15T11:21:57.145Z,28.04
2023-01-15T11:24:29.174Z,27.29
2023-01-15T11:26:59.429Z,27.43
2023-01-15T11:29:38.966Z,28.40
2023-01-15T11:32:30.513Z,28.90
2023-01-15T11:35:03.508Z,28.64
2023-01-15T11:37:33.910Z,28.88
2023-01-15T11:40:09.452Z,29.61
2023-01-15T11:42:58.828Z,30.40
2023-01-15T11:45:46.704Z,31.22
2023-01-15T11:48:43.715Z,31.77
2023-01-15T11:51:19.445Z,31.57
2023-01-15T11:53:53.875Z,31.36
2023-01-15T11:56:28.966Z,31.09
2023-01-15T11:59:02.733Z,30.83
2023-01-15T12:01:40.094Z,31.08
2023-01-15T12:04:35.233Z,31.73
2023-01-15T12:07:08.117Z,30.98
2023-01-15T12:10:04.244Z,29.87
2023-01-15T12:13:18.583Z,29.63
2023-01-15T12:16:09.296Z,29.55
2023-01-15T12:18:58.487Z,29.48
2023-01-15T12:21:29.639Z,29.48
2023-01-15T12:24:14.210Z,29.43
2023-01-15T12:26:55.278Z,29.67
2023-01-15T12:29:28.458Z,29.21
2023-01-15T12:32:05.958Z,29.49
2023-01-15T12:35:25.252Z,30.27
2023-01-15T12:38:19.184Z,30.31
2023-01-15T12:41:02.483Z,30.45
2023-01-15T12:43:50.984Z,30.35
2023-01-15T12:46:30.866Z,29.79
2023-01-15T12:49:15.776Z,29.28
2023-01-15T12:52:25.410Z,28.32
2023-01-15T12:55:16.698Z,27.29
2023-01-15T12:57:53.928Z,26.79
2023-01-15T13:00:30.831Z,26.47
2023-01-15T13:03:38.433Z,26.08
2023-01-15T13:06:10.886Z,25.91
2023-01-15T13:09:01.310Z,25.62
2023-01-15T13:11:31.950Z,25.65
2023-01-15T13:14:02.135Z,25.63
2023-01-15T13:16:40.655Z,25.29
2023-01-15T13:19:19.829Z,25.09
2023-01-15T13:21:54.055Z,24.91
2023-01-15T13:24:44.734Z,24.78
2023-01-15T13:27:45.001Z,24.54
2023-01-15T13:30:18.023Z,24.41
2023-01-15T13:32:52.655Z,24.43
2023-01-15T13:35:33.973Z,24.78
2023-01-15T13:38:11.199Z,25.08
2023-01-15T13:40:45.473Z,25.35
2023-01-15T13:43:32.362Z,26.16
2023-01-15T13:46:05.581Z,26.39
2023-01-15T13:48:48.090Z,26.51
2023-01-15T13:51:44.677Z,28.56
2023-01-15T13:54:19.780Z,28.01
2023-01-15T13:56:50.370Z,27.27
2023-01-15T13:59:45.656Z,26.32
2023-01-15T14:02:36.734Z,25.93
2023-01-15T14:05:25.275Z,25.40
2023-01-15T14:07:55.600Z,25.25
2023-01-15T14:10:35.020Z,25.60
2023-01-15T14:13:31.847Z,27.03
2023-01-15T14:16:16.382Z,29.45
2023-01-15T14:19:13.116Z,29.87
2023-01-15T14:21:49.092Z,28.87
2023-01-15T14:24:50.758Z,28.39
2023-01-15T14:28:03.381Z,28.40
2023-01-15T14:30:33.592Z,27.53
2023-01-15T14:33:43.331Z,27.23
2023-01-15T14:36:20.802Z,27.04
2023-01-15T14:38:56.461Z,27.14
2023-01-15T14:41:57.987Z,27.24
2023-01-15T14:44:32.073Z,27.54
2023-01-15T14:47:05.247Z,29.83
2023-01-15T14:49:50.901Z,31.92
2023-01-15T14:52:25.735Z,32.82
2023-01-15T14:54:57.216Z,31.94
2023-01-15T14:57:28.436Z,32.00
2023-01-15T15:00:06.466Z,32.52
2023-01-15T15:02:44.612Z,31.02
2023-01-15T15:05:19.216Z,32.15
2023-01-15T15:07:54.146Z,31.51
2023-01-15T15:10:28.564Z,29.89
2023-01-15T15:13:18.625Z,29.32
2023-01-15T15:16:00.951Z,28.59
2023-01-15T15:18:40.383Z,27.96
2023-01-15T15:21:29.287Z,27.94
2023-01-15T15:24:12.168Z,28.23
2023-01-15T15:26:42.924Z,30.71
2023-01-15T15:29:19.000Z,32.66
2023-01-15T15:31:54.863Z,32.52
2023-01-15T15:34:40.023Z,30.57
2023-01-15T15:37:23.041Z,29.79
2023-01-15T15:40:19.821Z,29.34
2023-01-15T15:43:13.577Z,29.07
2023-01-15T15:46:12.448Z,28.78
2023-01-15T15:48:44.074Z,28.40
2023-01-15T15:51:27.554Z,28.93
2023-01-15T15:54:20.591Z,30.27
2023-01-15T15:56:58.719Z,34.26
2023-01-15T15:59:38.355Z,36.03
2023-01-15T16:02:37.588Z,37.39
2023-01-15T16:05:29.547Z,38.41
2023-01-15T16:08:21.417Z,38.27
2023-01-15T16:11:04.071Z,34.79
2023-01-15T16:13:43.510Z,36.17
2023-01-15T16:16:17.653Z,36.77
2023-01-15T16:18:53.742Z,35.82
2023-01-15T16:21:34.690Z,38.11
2023-01-15T16:24:11.202Z,37.98
2023-01-15T16:26:49.681Z,38.93
2023-01-15T16:29:24.721Z,39.57
2023-01-15T16:31:57.804Z,39.39
2023-01-15T16:34:34.584Z,39.22
2023-01-15T16:37:04.878Z,40.43
2023-01-15T16:39:40.642Z,39.06
2023-01-15T16:42:28.277Z,34.13
2023-01-15T16:45:06.467Z,33.75
2023-01-15T16:47:38.064Z,34.23
2023-01-15T16:50:26.195Z,31.91
2023-01-15T16:53:02.889Z,30.47
2023-01-15T16:55:36.945Z,29.62
2023-01-15T16:58:22.404Z,29.96
2023-01-15T17:00:57.716Z,29.25
2023-01-15T17:03:29.316Z,29.97
2023-01-15T17:06:13.318Z,32.80
2023-01-15T17:08:48.889Z,31.32
2023-01-15T17:11:27.407Z,30.14
2023-01-15T17:14:12.499Z,29.45
2023-01-15T17:16:43.232Z,29.48
2023-01-15T17:19:13.959Z,29.34
2023-01-15T17:21:48.269Z,31.43
2023-01-15T17:24:18.471Z,31.16
2023-01-15T17:26:48.709Z,30.88
2023-01-15T17:29:19.090Z,32.99
2023-01-15T17:31:48.914Z,31.98
2023-01-15T17:34:24.550Z,31.67
2023-01-15T17:36:55.154Z,32.48
2023-01-15T17:39:25.222Z,31.29
2023-01-15T17:41:55.040Z,30.14
2023-01-15T17:44:24.806Z,29.79
2023-01-15T17:46:54.607Z,30.03
2023-01-15T17:49:24.848Z,30.81
2023-01-15T17:51:55.048Z,30.44
2023-01-15T17:54:44.615Z,32.58
2023-01-15T17:57:32.821Z,32.33
2023-01-15T18:00:22.048Z,34.37
2023-01-15T18:03:10.775Z,34.68
2023-01-15T18:05:41.501Z,32.95
2023-01-15T18:08:13.773Z,31.09
2023-01-15T18:10:43.974Z,31.66
2023-01-15T18:13:14.145Z,32.68
2023-01-15T18:15:43.927Z,31.67
2023-01-15T18:18:14.772Z,31.73
2023-01-15T18:20:44.616Z,31.37
2023-01-15T18:23:14.858Z,31.06
2023-01-15T18:25:47.349Z,31.29
2023-01-15T18:28:17.728Z,30.65
2023-01-15T18:30:48.316Z,32.25
2023-01-15T18:33:18.591Z,32.80
2023-01-15T18:35:48.377Z,32.60
2023-01-15T18:38:18.198Z,32.17
2023-01-15T18:40:48.007Z,31.06
2023-01-15T18:43:36.176Z,30.82
2023-01-15T18:46:26.697Z,30.81
2023-01-15T18:48:58.514Z,30.72
2023-01-15T18:51:28.714Z,30.45
2023-01-15T18:53:58.961Z,31.57
2023-01-15T18:56:40.428Z,32.04
2023-01-15T18:59:19.785Z,31.84
2023-01-15T19:01:49.854Z,31.84
2023-01-15T19:04:21.062Z,31.06
2023-01-15T19:06:51.104Z,31.10
2023-01-15T19:09:25.118Z,31.13
2023-01-15T19:11:55.572Z,31.43
2023-01-15T19:14:44.198Z,30.86
2023-01-15T19:17:38.311Z,30.47
2023-01-15T19:20:09.724Z,30.62
2023-01-15T19:22:58.222Z,30.33
2023-01-15T19:25:35.411Z,29.82
2023-01-15T19:28:05.950Z,29.32
2023-01-15T19:30:38.378Z,28.90
2023-01-15T19:33:10.285Z,28.70
2023-01-15T19:35:41.092Z,28.57
2023-01-15T19:38:31.226Z,28.43
2023-01-15T19:41:21.039Z,28.35
2023-01-15T19:44:09.609Z,28.29
2023-01-15T19:46:58.509Z,28.26
2023-01-15T19:49:54.841Z,28.13
2023-01-15T19:52:36.648Z,27.91
2023-01-15T19:55:12.722Z,27.84
2023-01-15T19:57:46.869Z,27.77
2023-01-15T20:00:20.156Z,27.88
2023-01-15T20:02:50.489Z,27.67
2023-01-15T20:05:21.647Z,27.62
2023-01-15T20:07:51.924Z,27.48
2023-01-15T20:10:24.632Z,27.48
2023-01-15T20:13:12.617Z,27.50
2023-01-15T20:15:46.866Z,27.38
2023-01-15T20:18:19.987Z,27.22
2023-01-15T20:20:50.497Z,27.10
2023-01-15T20:23:20.399Z,27.06
2023-01-15T20:25:53.152Z,26.99
2023-01-15T20:28:23.840Z,27.02
2023-01-15T20:30:55.804Z,27.11
2023-01-15T20:33:26.832Z,27.20
2023-01-15T20:35:56.822Z,26.92
2023-01-15T20:38:27.153Z,26.68
2023-01-15T20:41:16.751Z,26.53
2023-01-15T20:44:05.014Z,26.65
2023-01-15T20:46:36.080Z,26.71
2023-01-15T20:49:24.919Z,26.89
2023-01-15T20:51:56.037Z,27.29
2023-01-15T20:54:27.443Z,27.57
2023-01-15T20:56:57.628Z,27.68
2023-01-15T20:59:27.446Z,27.58
2023-01-15T21:01:58.431Z,27.31
2023-01-15T21:04:31.111Z,27.11
2023-01-15T21:07:01.454Z,26.97
2023-01-15T21:09:31.636Z,26.89
2023-01-15T21:12:01.451Z,26.87
2023-01-15T21:14:31.271Z,26.76
2023-01-15T21:17:01.166Z,26.71
2023-01-15T21:19:31.494Z,26.59
2023-01-15T21:22:01.474Z,26.48
2023-01-15T21:24:31.751Z,26.52
2023-01-15T21:27:01.722Z,26.48
2023-01-15T21:29:31.715Z,26.45
2023-01-15T21:32:01.574Z,26.48
2023-01-15T21:34:31.414Z,26.42
2023-01-15T21:37:01.771Z,26.34
2023-01-15T21:39:31.633Z,26.27
2023-01-15T21:42:20.181Z,26.22
2023-01-15T21:44:50.486Z,26.11
2023-01-15T21:47:21.477Z,26.05
2023-01-15T21:49:52.066Z,25.97
2023-01-15T21:52:22.700Z,25.88
2023-01-15T21:54:53.365Z,25.81
2023-01-15T21:57:23.662Z,25.73
2023-01-15T21:59:53.944Z,25.63
2023-01-15T22:02:24.658Z,25.62
2023-01-15T22:04:54.528Z,25.54
2023-01-15T22:07:24.388Z,25.42
2023-01-15T22:09:54.183Z,25.36
2023-01-15T22:12:24.480Z,25.28
2023-01-15T22:14:55.931Z,25.25
2023-01-15T22:17:26.581Z,25.20
2023-01-15T22:19:56.559Z,25.11
2023-01-15T22:22:32.873Z,24.84
2023-01-15T22:25:03.155Z,24.68
2023-01-15T22:27:35.622Z,24.61
2023-01-15T22:30:06.705Z,24.54
2023-01-15T22:32:36.984Z,24.49
2023-01-15T22:35:08.730Z,24.41
2023-01-15T22:37:38.794Z,24.33
2023-01-15T22:40:09.513Z,24.23
2023-01-15T22:42:40.541Z,24.12
2023-01-15T22:45:11.111Z,24.12
2023-01-15T22:47:40.961Z,24.06
2023-01-15T22:50:13.389Z,24.06
2023-01-15T22:52:43.978Z,24.03
2023-01-15T22:55:15.465Z,24.00
2023-01-15T22:57:45.515Z,23.98
2023-01-15T23:00:15.939Z,24.00
2023-01-15T23:03:05.980Z,24.00
2023-01-15T23:05:41.048Z,23.86
2023-01-15T23:08:11.117Z,23.90
2023-01-15T23:10:45.635Z,23.99
2023-01-15T23:13:16.429Z,24.06
2023-01-15T23:15:46.492Z,24.03
2023-01-15T23:18:16.772Z,24.02
2023-01-15T23:20:46.795Z,24.00
2023-01-15T23:23:16.598Z,24.02
2023-01-15T23:25:46.701Z,24.02
2023-01-15T23:28:16.554Z,24.00
2023-01-15T23:30:46.891Z,23.99
2023-01-15T23:33:16.931Z,23.96
2023-01-15T23:35:50.286Z,23.98
2023-01-15T23:38:21.166Z,23.98
2023-01-15T23:40:51.139Z,23.95
2023-01-15T23:43:40.261Z,23.83
2023-01-15T23:46:41.673Z,23.86
2023-01-15T23:49:14.163Z,23.83
2023-01-15T23:51:44.189Z,23.78
2023-01-15T23:54:14.531Z,23.76
2023-01-15T23:56:44.767Z,23.73
2023-01-15T23:59:14.604Z,23.71
